createdAt,value
2018-02-22T00:02:28.576Z,33.80
2018-02-22T00:05:02.312Z,36.40
2018-02-22T00:07:35.920Z,33.63
2018-02-22T00:10:09.711Z,35.73
2018-02-22T00:12:43.255Z,38.90
2018-02-22T00:15:16.899Z,30.37
2018-02-22T00:17:50.482Z,32.27
2018-02-22T00:20:24.097Z,33.30
2018-02-22T00:22:58.567Z,33.17
2018-02-22T00:25:32.288Z,30.50
2018-02-22T00:28:05.956Z,37.60
2018-02-22T00:30:40.326Z,35.30
2018-02-22T00:33:14.014Z,33.77
2018-02-22T00:35:47.602Z,41.17
2018-02-22T00:38:21.198Z,35.50
2018-02-22T00:40:54.980Z,40.90
2018-02-22T00:43:28.532Z,61.40
2018-02-22T00:46:03.195Z,60.13
2018-02-22T00:48:37.689Z,62.47
2018-02-22T00:51:11.717Z,47.40
2018-02-22T00:53:45.260Z,47.80
2018-02-22T00:56:19.057Z,50.80
2018-02-22T00:58:53.470Z,38.37
2018-02-22T01:01:27.321Z,35.87
2018-02-22T01:04:01.732Z,38.30
2018-02-22T01:06:35.715Z,34.93
2018-02-22T01:09:10.296Z,34.30
2018-02-22T01:11:44.091Z,30.43
2018-02-22T01:14:18.431Z,30.77
2018-02-22T01:16:53.071Z,37.47
2018-02-22T01:19:26.984Z,40.80
2018-02-22T01:22:00.620Z,30.60
2018-02-22T01:24:34.697Z,35.87
2018-02-22T01:27:09.131Z,32.80
2018-02-22T01:29:43.538Z,36.17
2018-02-22T01:32:18.395Z,34.80
2018-02-22T01:34:52.242Z,32.33
2018-02-22T01:37:25.854Z,32.87
2018-02-22T01:39:59.592Z,34.87
2018-02-22T01:42:33.165Z,36.20
2018-02-22T01:45:06.783Z,30.83
2018-02-22T01:47:40.367Z,35.40
2018-02-22T01:50:14.084Z,35.37
2018-02-22T01:52:48.431Z,31.80
2018-02-22T01:55:22.318Z,38.57
2018-02-22T01:57:55.941Z,36.80
2018-02-22T02:00:29.412Z,31.73
2018-02-22T02:03:03.068Z,37.33
2018-02-22T02:05:36.616Z,37.50
2018-02-22T02:08:10.118Z,33.00
2018-02-22T02:10:43.754Z,31.70
2018-02-22T02:13:17.456Z,34.93
2018-02-22T02:15:51.139Z,30.80
2018-02-22T02:18:25.404Z,33.83
2018-02-22T02:20:59.412Z,37.90
2018-02-22T02:23:33.899Z,32.43
2018-02-22T02:26:08.261Z,41.43
2018-02-22T02:28:42.184Z,35.60
2018-02-22T02:31:15.788Z,32.90
2018-02-22T02:33:49.349Z,30.17
2018-02-22T02:36:22.959Z,35.00
2018-02-22T02:38:56.773Z,35.33
2018-02-22T02:41:31.207Z,34.17
2018-02-22T02:44:05.008Z,38.30
2018-02-22T02:46:39.460Z,31.07
2018-02-22T02:49:14.062Z,35.40
2018-02-22T02:51:48.871Z,37.33
2018-02-22T02:54:23.484Z,40.07
2018-02-22T02:56:57.421Z,32.90
2018-02-22T02:59:31.725Z,37.07
2018-02-22T03:02:05.683Z,31.97
2018-02-22T03:04:39.381Z,33.80
2018-02-22T03:07:12.984Z,36.73
2018-02-22T03:09:47.355Z,38.43
2018-02-22T03:12:22.015Z,39.40
2018-02-22T03:14:56.708Z,33.67
2018-02-22T03:17:33.485Z,37.40
2018-02-22T03:20:07.126Z,33.53
2018-02-22T03:22:40.839Z,35.83
2018-02-22T03:25:14.530Z,34.47
2018-02-22T03:27:48.835Z,35.10
2018-02-22T03:30:22.690Z,33.13
2018-02-22T03:32:56.312Z,34.27
2018-02-22T03:35:30.649Z,38.37
2018-02-22T03:38:04.401Z,40.00
2018-02-22T03:40:37.917Z,37.60
2018-02-22T03:43:11.635Z,45.97
2018-02-22T03:45:45.142Z,33.03
2018-02-22T03:48:18.760Z,39.57
2018-02-22T03:50:52.882Z,38.87
2018-02-22T03:53:27.909Z,36.00
2018-02-22T03:56:02.025Z,38.37
2018-02-22T03:58:35.802Z,33.47
2018-02-22T04:01:09.287Z,37.73
2018-02-22T04:03:43.050Z,30.97
2018-02-22T04:06:16.741Z,33.10
2018-02-22T04:08:51.040Z,36.70
2018-02-22T04:11:25.649Z,35.93
2018-02-22T04:13:59.483Z,42.90
2018-02-22T04:16:33.920Z,36.10
2018-02-22T04:19:07.607Z,38.37
2018-02-22T04:21:41.280Z,37.80
2018-02-22T04:24:14.996Z,42.00
2018-02-22T04:26:48.536Z,39.53
2018-02-22T04:29:23.003Z,41.70
2018-02-22T04:31:56.918Z,35.60
2018-02-22T04:34:30.516Z,38.10
2018-02-22T04:37:04.102Z,37.53
2018-02-22T04:39:37.787Z,34.13
2018-02-22T04:42:11.473Z,36.77
2018-02-22T04:44:45.108Z,42.80
2018-02-22T04:47:18.820Z,32.40
2018-02-22T04:49:52.447Z,44.67
2018-02-22T04:52:26.239Z,34.23
2018-02-22T04:55:00.659Z,39.63
2018-02-22T04:57:35.424Z,41.13
2018-02-22T05:00:09.326Z,40.93
2018-02-22T05:02:42.873Z,41.40
2018-02-22T05:05:17.321Z,43.57
2018-02-22T05:07:51.285Z,41.27
2018-02-22T05:10:24.896Z,39.73
2018-02-22T05:12:59.259Z,39.97
2018-02-22T05:15:33.128Z,43.97
2018-02-22T05:18:06.786Z,35.47
2018-02-22T05:20:40.337Z,36.00
2018-02-22T05:23:13.910Z,38.57
2018-02-22T05:25:47.603Z,43.80
2018-02-22T05:28:21.235Z,45.03
2018-02-22T05:30:54.920Z,42.67
2018-02-22T05:33:29.219Z,44.07
2018-02-22T05:36:04.088Z,59.23
2018-02-22T05:38:37.715Z,45.33
2018-02-22T05:41:11.557Z,38.47
2018-02-22T05:43:45.997Z,50.93
2018-02-22T05:46:19.852Z,47.63
2018-02-22T05:48:53.517Z,42.87
2018-02-22T05:51:27.969Z,43.50
2018-02-22T05:54:01.862Z,39.50
2018-02-22T05:56:35.533Z,39.87
2018-02-22T05:59:09.288Z,40.10
2018-02-22T06:01:43.613Z,48.90
2018-02-22T06:04:17.716Z,45.43
2018-02-22T06:06:52.188Z,50.33
2018-02-22T06:09:25.754Z,40.73
2018-02-22T06:12:00.209Z,43.07
2018-02-22T06:14:34.014Z,41.80
2018-02-22T06:17:07.961Z,47.03
2018-02-22T06:19:41.564Z,48.03
2018-02-22T06:22:15.506Z,42.50
2018-02-22T06:24:49.786Z,53.13
2018-02-22T06:27:23.379Z,46.37
2018-02-22T06:29:57.046Z,54.10
2018-02-22T06:32:30.717Z,56.73
2018-02-22T06:35:04.347Z,49.67
2018-02-22T06:37:38.076Z,57.00
2018-02-22T06:40:12.540Z,50.50
2018-02-22T06:42:46.425Z,58.43
2018-02-22T06:45:19.942Z,76.40
2018-02-22T06:47:53.568Z,51.73
2018-02-22T06:50:28.764Z,42.27
2018-02-22T06:53:03.033Z,46.40
2018-02-22T06:55:37.420Z,56.73
2018-02-22T06:58:12.538Z,60.17
2018-02-22T07:00:46.168Z,63.90
2018-02-22T07:03:19.857Z,60.70
2018-02-22T07:05:54.201Z,54.00
2018-02-22T07:08:28.587Z,56.23
2018-02-22T07:11:02.262Z,64.37
2018-02-22T07:13:35.951Z,54.90
2018-02-22T07:16:10.723Z,57.27
2018-02-22T07:18:44.577Z,47.20
2018-02-22T07:21:18.179Z,49.17
2018-02-22T07:23:52.669Z,52.50
2018-02-22T07:26:26.495Z,52.97
2018-02-22T07:29:00.153Z,44.80
2018-02-22T07:31:34.717Z,56.90
2018-02-22T07:34:09.544Z,51.90
2018-02-22T07:36:43.676Z,38.13
2018-02-22T07:39:17.347Z,51.97
2018-02-22T07:41:51.754Z,48.67
2018-02-22T07:44:26.327Z,44.23
2018-02-22T07:47:01.219Z,48.27
2018-02-22T07:49:35.868Z,48.70
2018-02-22T07:52:09.857Z,45.23
2018-02-22T07:54:43.741Z,57.27
2018-02-22T07:57:18.519Z,56.97
2018-02-22T07:59:52.408Z,53.90
2018-02-22T08:02:27.078Z,51.00
2018-02-22T08:05:00.921Z,54.37
2018-02-22T08:07:34.632Z,47.67
2018-02-22T08:10:09.045Z,57.83
2018-02-22T08:12:42.902Z,55.10
2018-02-22T08:15:17.403Z,49.93
2018-02-22T08:17:51.136Z,53.83
2018-02-22T08:20:24.716Z,46.97
2018-02-22T08:22:58.416Z,58.30
2018-02-22T08:25:32.139Z,53.63
2018-02-22T08:28:05.729Z,54.20
2018-02-22T08:30:39.354Z,64.30
2018-02-22T08:33:13.813Z,62.37
2018-02-22T08:35:48.420Z,60.10
2018-02-22T08:38:22.326Z,59.57
2018-02-22T08:40:56.092Z,60.83
2018-02-22T08:43:29.825Z,54.63
2018-02-22T08:46:04.071Z,56.93
2018-02-22T08:48:37.855Z,52.50
2018-02-22T08:51:11.382Z,50.97
2018-02-22T08:53:44.988Z,49.77
2018-02-22T08:56:18.556Z,53.43
2018-02-22T08:58:52.350Z,51.20
2018-02-22T09:01:26.071Z,43.03
2018-02-22T09:03:59.680Z,43.07
2018-02-22T09:06:34.098Z,47.33
2018-02-22T09:09:07.862Z,40.47
2018-02-22T09:11:42.434Z,39.60
2018-02-22T09:14:16.731Z,39.90
2018-02-22T09:16:50.243Z,42.80
2018-02-22T09:19:23.896Z,39.60
2018-02-22T09:21:57.698Z,41.87
2018-02-22T09:24:31.395Z,38.80
2018-02-22T09:27:05.856Z,41.13
2018-02-22T09:29:40.757Z,41.43
2018-02-22T09:32:15.347Z,41.47
2018-02-22T09:34:49.334Z,41.10
2018-02-22T09:37:23.130Z,44.60
2018-02-22T09:39:57.607Z,36.00
2018-02-22T09:42:31.627Z,38.10
2018-02-22T09:45:05.342Z,36.90
2018-02-22T09:47:39.697Z,40.80
2018-02-22T09:50:14.333Z,43.63
2018-02-22T09:52:48.092Z,38.30
2018-02-22T09:55:21.711Z,39.97
2018-02-22T09:57:55.443Z,42.87
2018-02-22T10:00:29.876Z,36.00
2018-02-22T10:03:03.916Z,50.83
2018-02-22T10:05:37.655Z,36.20
2018-02-22T10:08:11.359Z,44.23
2018-02-22T10:10:44.839Z,44.97
2018-02-22T10:13:19.289Z,42.60
2018-02-22T10:15:53.197Z,43.90
2018-02-22T10:18:26.906Z,36.37
2018-02-22T10:21:00.612Z,45.03
2018-02-22T10:23:34.289Z,76.83
2018-02-22T10:26:08.005Z,38.87
2018-02-22T10:28:41.550Z,40.53
2018-02-22T10:31:15.333Z,54.03
2018-02-22T10:33:49.885Z,47.07
2018-02-22T10:36:24.028Z,39.57
2018-02-22T10:38:58.379Z,57.83
2018-02-22T10:41:32.171Z,39.70
2018-02-22T10:44:06.693Z,41.33
2018-02-22T10:46:41.339Z,40.67
2018-02-22T10:49:15.343Z,40.87
2018-02-22T10:51:49.193Z,36.23
2018-02-22T10:54:23.663Z,38.63
2018-02-22T10:56:57.680Z,37.80
2018-02-22T10:59:31.394Z,40.27
2018-02-22T11:02:10.834Z,35.40
2018-02-22T11:04:45.533Z,35.37
2018-02-22T11:07:19.421Z,31.30
2018-02-22T11:09:53.104Z,37.73
2018-02-22T11:12:26.760Z,33.60
2018-02-22T11:15:00.383Z,29.20
2018-02-22T11:17:34.051Z,34.17
2018-02-22T11:20:08.604Z,32.70
2018-02-22T11:22:42.387Z,24.97
2018-02-22T11:25:17.030Z,24.43
2018-02-22T11:27:50.807Z,25.87
2018-02-22T11:30:24.345Z,23.50
2018-02-22T11:32:57.924Z,31.17
2018-02-22T11:35:31.478Z,21.40
2018-02-22T11:38:05.032Z,19.60
2018-02-22T11:40:38.707Z,19.00
2018-02-22T11:43:12.474Z,26.43
2018-02-22T11:45:46.142Z,21.63
2018-02-22T11:48:19.817Z,24.30
2018-02-22T11:50:53.522Z,21.00
2018-02-22T11:53:27.041Z,20.77
2018-02-22T11:56:00.676Z,18.80
2018-02-22T11:58:34.448Z,29.80
2018-02-22T12:01:08.869Z,22.47
2018-02-22T12:03:42.628Z,15.47
2018-02-22T12:06:16.361Z,21.67
2018-02-22T12:08:50.042Z,21.93
2018-02-22T12:11:24.492Z,16.77
2018-02-22T12:13:58.268Z,29.13
2018-02-22T12:16:31.944Z,23.10
2018-02-22T12:19:05.721Z,14.70
2018-02-22T12:21:39.267Z,20.87
2018-02-22T12:24:12.954Z,13.20
2018-02-22T12:26:46.630Z,14.93
2018-02-22T12:29:20.839Z,16.70
2018-02-22T12:31:54.936Z,16.60
2018-02-22T12:34:28.697Z,14.60
2018-02-22T12:37:03.172Z,19.53
2018-02-22T12:39:36.956Z,17.90
2018-02-22T12:42:10.854Z,20.10
2018-02-22T12:44:45.209Z,16.67
2018-02-22T12:47:19.104Z,17.37
2018-02-22T12:49:52.676Z,12.43
2018-02-22T12:52:27.132Z,13.87
2018-02-22T12:55:01.740Z,13.33
2018-02-22T12:57:35.742Z,13.37
2018-02-22T13:00:10.977Z,10.70
2018-02-22T13:02:44.890Z,19.13
2018-02-22T13:05:19.412Z,20.80
2018-02-22T13:07:54.075Z,12.57
2018-02-22T13:10:28.071Z,11.93
2018-02-22T13:13:01.894Z,10.13
2018-02-22T13:15:36.404Z,12.20
2018-02-22T13:18:10.532Z,9.10
2018-02-22T13:20:45.012Z,7.87
2018-02-22T13:23:18.757Z,16.93
2018-02-22T13:25:53.336Z,13.10
2018-02-22T13:28:27.860Z,10.80
2018-02-22T13:31:01.905Z,10.57
2018-02-22T13:33:47.320Z,11.87
2018-02-22T13:36:21.049Z,11.10
2018-02-22T13:39:06.258Z,13.07
2018-02-22T13:41:40.745Z,16.07
2018-02-22T13:44:26.793Z,11.00
2018-02-22T13:47:00.383Z,10.23
2018-02-22T13:49:45.720Z,11.50
2018-02-22T13:52:20.351Z,10.53
2018-02-22T13:54:54.316Z,12.90
2018-02-22T13:57:27.984Z,13.63
2018-02-22T14:00:01.547Z,17.93
2018-02-22T14:02:35.126Z,16.77
2018-02-22T14:05:09.751Z,17.00
2018-02-22T14:07:43.456Z,18.97
2018-02-22T14:10:18.109Z,36.03
2018-02-22T14:12:52.680Z,25.37
2018-02-22T14:15:26.703Z,21.60
2018-02-22T14:18:00.472Z,14.20
2018-02-22T14:20:34.073Z,21.10
2018-02-22T14:23:07.715Z,16.90
2018-02-22T14:25:41.357Z,14.87
2018-02-22T14:28:15.015Z,19.27
2018-02-22T14:30:48.746Z,13.47
2018-02-22T14:33:22.524Z,18.33
2018-02-22T14:35:56.859Z,24.57
2018-02-22T14:38:30.859Z,25.53
2018-02-22T14:41:05.344Z,17.10
2018-02-22T14:43:39.281Z,19.83
2018-02-22T14:46:12.916Z,23.27
2018-02-22T14:48:46.586Z,23.00
2018-02-22T14:51:20.200Z,22.67
2018-02-22T14:53:53.778Z,12.80
2018-02-22T14:56:27.462Z,19.10
2018-02-22T14:59:01.051Z,17.33
2018-02-22T15:01:35.624Z,21.13
2018-02-22T15:04:10.324Z,52.80
2018-02-22T15:06:44.907Z,20.53
2018-02-22T15:09:19.654Z,23.80
2018-02-22T15:11:53.579Z,27.87
2018-02-22T15:14:27.199Z,10.33
2018-02-22T15:17:00.790Z,23.53
2018-02-22T15:19:34.316Z,25.50
2018-02-22T15:22:08.661Z,20.53
2018-02-22T15:24:42.696Z,25.50
2018-02-22T15:27:16.468Z,22.00
2018-02-22T15:29:50.218Z,19.70
2018-02-22T15:32:23.930Z,15.60
2018-02-22T15:34:57.687Z,13.90
2018-02-22T15:37:31.488Z,15.47
2018-02-22T15:40:05.816Z,12.10
2018-02-22T15:42:40.539Z,15.63
2018-02-22T15:45:14.575Z,12.33
2018-02-22T15:47:48.319Z,14.50
2018-02-22T15:50:22.762Z,11.20
2018-02-22T15:52:57.434Z,12.03
2018-02-22T15:55:31.357Z,21.03
2018-02-22T15:58:04.984Z,17.33
2018-02-22T16:00:38.790Z,14.60
2018-02-22T16:03:13.235Z,20.73
2018-02-22T16:05:47.871Z,17.57
2018-02-22T16:08:22.310Z,14.50
2018-02-22T16:10:56.184Z,19.63
2018-02-22T16:13:30.615Z,12.73
2018-02-22T16:16:05.171Z,15.83
2018-02-22T16:18:40.609Z,17.40
2018-02-22T16:21:15.347Z,20.13
2018-02-22T16:23:49.851Z,27.67
2018-02-22T16:26:23.726Z,31.07
2018-02-22T16:28:57.256Z,19.37
2018-02-22T16:31:31.580Z,23.00
2018-02-22T16:34:06.132Z,15.10
2018-02-22T16:36:40.120Z,20.27
2018-02-22T16:39:13.902Z,20.20
2018-02-22T16:41:48.332Z,34.30
2018-02-22T16:44:22.205Z,21.60
2018-02-22T16:46:55.776Z,20.43
2018-02-22T16:49:29.659Z,13.90
2018-02-22T16:52:03.451Z,16.23
2018-02-22T16:54:37.054Z,20.40
2018-02-22T16:57:10.841Z,21.63
2018-02-22T16:59:44.947Z,19.10
2018-02-22T17:02:19.049Z,27.73
2018-02-22T17:04:52.826Z,21.60
2018-02-22T17:07:26.562Z,21.90
2018-02-22T17:10:00.128Z,22.43
2018-02-22T17:12:33.680Z,22.30
2018-02-22T17:15:07.543Z,26.50
2018-02-22T17:17:45.142Z,25.10
2018-02-22T17:20:18.855Z,28.83
2018-02-22T17:22:52.504Z,25.40
2018-02-22T17:25:26.694Z,28.23
2018-02-22T17:28:06.511Z,20.83
2018-02-22T17:30:46.087Z,27.73
2018-02-22T17:33:20.249Z,24.73
2018-02-22T17:36:03.755Z,26.33
2018-02-22T17:41:44.251Z,30.23
2018-02-22T17:44:18.103Z,29.50
2018-02-22T17:46:51.706Z,31.40
2018-02-22T17:49:26.168Z,20.53
2018-02-22T17:52:00.093Z,34.27
2018-02-22T17:54:34.671Z,32.43
2018-02-22T17:57:08.509Z,23.60
2018-02-22T17:59:42.325Z,26.40
2018-02-22T18:02:15.899Z,25.97
2018-02-22T18:04:50.410Z,21.73
2018-02-22T18:07:24.344Z,22.63
2018-02-22T18:09:58.717Z,26.33
2018-02-22T18:12:32.682Z,26.50
2018-02-22T18:15:06.395Z,31.53
2018-02-22T18:17:40.198Z,34.13
2018-02-22T18:20:14.759Z,29.70
2018-02-22T18:22:49.482Z,36.30
2018-02-22T18:25:23.191Z,35.63
2018-02-22T18:27:57.039Z,27.77
2018-02-22T18:30:30.812Z,31.63
2018-02-22T18:33:05.259Z,36.27
2018-02-22T18:35:39.013Z,34.10
2018-02-22T18:38:12.611Z,39.83
2018-02-22T18:40:52.827Z,43.17
2018-02-22T18:43:33.496Z,47.40
2018-02-22T18:46:08.483Z,57.83
2018-02-22T18:48:42.331Z,42.03
2018-02-22T18:51:16.066Z,42.77
2018-02-22T18:53:49.574Z,42.50
2018-02-22T18:56:23.987Z,49.80
2018-02-22T18:58:57.945Z,48.10
2018-02-22T19:01:31.679Z,48.20
2018-02-22T19:04:05.343Z,39.50
2018-02-22T19:06:39.165Z,45.67
2018-02-22T19:09:12.838Z,41.00
2018-02-22T19:11:47.292Z,56.00
2018-02-22T19:14:21.305Z,39.47
2018-02-22T19:16:54.969Z,43.43
2018-02-22T19:19:28.529Z,37.47
2018-02-22T19:22:02.198Z,44.40
2018-02-22T19:24:36.656Z,38.83
2018-02-22T19:27:11.242Z,35.80
2018-02-22T19:29:45.490Z,41.23
2018-02-22T19:32:19.059Z,43.50
2018-02-22T19:34:53.914Z,33.57
2018-02-22T19:37:29.180Z,40.67
2018-02-22T19:40:03.580Z,34.20
2018-02-22T19:42:37.598Z,35.60
2018-02-22T19:45:11.710Z,42.63
2018-02-22T19:47:45.550Z,42.17
2018-02-22T19:50:19.562Z,38.60
2018-02-22T19:52:53.602Z,39.73
2018-02-22T19:55:28.241Z,44.50
2018-02-22T19:58:02.927Z,41.73
2018-02-22T20:00:37.225Z,40.63
2018-02-22T20:03:11.774Z,40.87
2018-02-22T20:05:45.796Z,41.47
2018-02-22T20:08:19.295Z,45.00
2018-02-22T20:10:53.118Z,42.80
2018-02-22T20:13:26.820Z,42.13
2018-02-22T20:16:01.347Z,51.40
2018-02-22T20:18:35.023Z,51.60
2018-02-22T20:21:08.643Z,47.70
2018-02-22T20:23:42.705Z,60.83
2018-02-22T20:26:17.765Z,47.33
2018-02-22T20:28:52.425Z,51.20
2018-02-22T20:31:27.127Z,53.20
2018-02-22T20:34:01.083Z,60.83
2018-02-22T20:36:35.859Z,56.03
2018-02-22T20:39:09.576Z,52.83
2018-02-22T20:41:43.395Z,58.33
2018-02-22T20:44:17.199Z,46.57
2018-02-22T20:46:50.967Z,51.23
2018-02-22T20:49:24.567Z,49.40
2018-02-22T20:51:58.566Z,51.47
2018-02-22T20:54:32.603Z,52.30
2018-02-22T20:57:06.715Z,51.80
2018-02-22T20:59:40.629Z,66.43
2018-02-22T21:02:15.460Z,53.17
2018-02-22T21:04:49.438Z,64.40
2018-02-22T21:07:23.578Z,55.80
2018-02-22T21:09:58.403Z,51.53
2018-02-22T21:12:33.424Z,62.93
2018-02-22T21:15:07.523Z,58.37
2018-02-22T21:20:22.338Z,47.83
2018-02-22T21:22:56.025Z,53.27
2018-02-22T21:25:29.668Z,50.27
2018-02-22T21:28:04.176Z,55.57
2018-02-22T21:30:37.908Z,61.10
2018-02-22T21:33:11.684Z,47.43
2018-02-22T21:35:45.348Z,47.43
2018-02-22T21:38:19.802Z,53.10
2018-02-22T21:40:53.676Z,52.90
2018-02-22T21:43:27.592Z,51.33
2018-02-22T21:46:02.155Z,55.53
2018-02-22T21:48:35.924Z,50.80
2018-02-22T21:51:09.583Z,54.03
2018-02-22T21:53:44.287Z,53.03
2018-02-22T21:56:18.053Z,51.03
2018-02-22T21:58:51.686Z,54.07
2018-02-22T22:01:25.365Z,52.07
2018-02-22T22:03:59.001Z,55.23
2018-02-22T22:06:32.751Z,56.60
2018-02-22T22:09:07.098Z,51.27
2018-02-22T22:11:41.099Z,53.77
2018-02-22T22:14:14.840Z,51.50
2018-02-22T22:16:48.781Z,54.20
2018-02-22T22:19:22.513Z,55.27
2018-02-22T22:21:56.159Z,57.43
2018-02-22T22:24:29.928Z,56.30
2018-02-22T22:27:03.720Z,58.37
2018-02-22T22:29:37.614Z,67.30
2018-02-22T22:32:11.438Z,53.27
2018-02-22T22:34:45.905Z,59.77
2018-02-22T22:37:19.974Z,60.30
2018-02-22T22:39:54.512Z,58.63
2018-02-22T22:42:28.404Z,62.27
2018-02-22T22:45:02.832Z,56.97
2018-02-22T22:47:37.294Z,57.93
2018-02-22T22:50:11.127Z,56.07
2018-02-22T22:52:45.683Z,58.07
2018-02-22T22:55:19.547Z,59.13
2018-02-22T22:57:53.387Z,57.50
2018-02-22T23:00:27.348Z,52.80
2018-02-22T23:03:01.027Z,56.57
2018-02-22T23:05:34.827Z,65.03
2018-02-22T23:08:08.547Z,59.90
2018-02-22T23:10:43.360Z,58.03
2018-02-22T23:13:17.373Z,57.20
2018-02-22T23:15:51.236Z,59.90
2018-02-22T23:18:25.217Z,58.63
2018-02-22T23:20:59.703Z,64.70
2018-02-22T23:23:33.923Z,65.77
2018-02-22T23:26:07.734Z,58.30
2018-02-22T23:28:42.327Z,62.53
2018-02-22T23:31:16.140Z,62.77
2018-02-22T23:33:49.928Z,70.10
2018-02-22T23:36:23.759Z,56.90
2018-02-22T23:38:58.305Z,68.27
2018-02-22T23:41:35.369Z,69.60
2018-02-22T23:44:09.279Z,63.97
2018-02-22T23:46:43.072Z,80.33
2018-02-22T23:49:16.903Z,71.17
2018-02-22T23:51:51.201Z,67.33
2018-02-22T23:54:25.202Z,72.07
2018-02-22T23:56:59.036Z,64.53
2018-02-22T23:59:32.617Z,65.73
